createdAt,value
2023-05-24T00:00:33.217Z,13.13
2023-05-24T00:02:34.854Z,11.77
2023-05-24T00:04:36.491Z,12.85
2023-05-24T00:06:38.075Z,12.63
2023-05-24T00:08:39.617Z,12.57
2023-05-24T00:10:41.494Z,13.68
2023-05-24T00:12:43.194Z,13.45
2023-05-24T00:14:44.749Z,12.93
2023-05-24T00:16:46.718Z,12.23
2023-05-24T00:18:48.372Z,12.43
2023-05-24T00:20:51.869Z,12.80
2023-05-24T00:22:53.554Z,13.02
2023-05-24T00:24:55.139Z,12.73
2023-05-24T00:26:56.699Z,13.13
2023-05-24T00:28:58.271Z,12.80
2023-05-24T00:31:00.425Z,13.45
2023-05-24T00:33:02.032Z,14.15
2023-05-24T00:35:03.830Z,13.60
2023-05-24T00:37:05.495Z,13.48
2023-05-24T00:39:07.181Z,13.60
2023-05-24T00:41:08.771Z,13.95
2023-05-24T00:43:10.397Z,14.77
2023-05-24T00:45:12.105Z,13.98
2023-05-24T00:47:13.957Z,15.27
2023-05-24T00:49:15.728Z,14.45
2023-05-24T00:51:17.834Z,14.23
2023-05-24T00:53:19.488Z,13.18
2023-05-24T00:55:21.189Z,13.45
2023-05-24T00:57:23.930Z,13.70
2023-05-24T00:59:26.827Z,13.45
2023-05-24T01:01:31.158Z,13.90
2023-05-24T01:03:34.005Z,13.57
2023-05-24T01:05:35.938Z,13.38
2023-05-24T01:07:48.319Z,13.15
2023-05-24T01:10:09.905Z,12.93
2023-05-24T01:12:28.695Z,12.57
2023-05-24T01:14:44.964Z,12.95
2023-05-24T01:17:09.482Z,12.70
2023-05-24T01:19:44.746Z,12.80
2023-05-24T01:22:02.015Z,12.13
2023-05-24T01:24:42.428Z,12.27
2023-05-24T01:26:43.932Z,13.25
2023-05-24T01:28:48.374Z,14.07
2023-05-24T01:30:50.087Z,13.40
2023-05-24T01:32:52.098Z,13.38
2023-05-24T01:34:53.671Z,13.30
2023-05-24T01:36:55.469Z,12.65
2023-05-24T01:38:57.091Z,13.70
2023-05-24T01:41:05.753Z,14.23
2023-05-24T01:43:43.408Z,13.82
2023-05-24T01:45:55.098Z,15.27
2023-05-24T01:48:22.953Z,15.85
2023-05-24T01:50:38.759Z,16.42
2023-05-24T01:52:44.152Z,15.60
2023-05-24T01:54:50.525Z,15.95
2023-05-24T01:56:57.511Z,16.17
2023-05-24T01:59:01.103Z,17.15
2023-05-24T02:01:03.050Z,18.05
2023-05-24T02:03:05.500Z,19.83
2023-05-24T02:05:07.518Z,17.77
2023-05-24T02:07:09.155Z,20.65
2023-05-24T02:09:10.836Z,21.13
2023-05-24T02:11:12.374Z,21.20
2023-05-24T02:13:13.917Z,20.95
2023-05-24T02:15:15.558Z,21.50
2023-05-24T02:17:18.347Z,23.02
2023-05-24T02:19:20.025Z,24.17
2023-05-24T02:21:23.527Z,23.92
2023-05-24T02:23:25.201Z,24.50
2023-05-24T02:25:26.880Z,24.15
2023-05-24T02:27:28.660Z,24.95
2023-05-24T02:29:30.215Z,27.63
2023-05-24T02:31:31.926Z,26.98
2023-05-24T02:33:33.839Z,25.40
2023-05-24T02:35:35.447Z,27.38
2023-05-24T02:37:37.057Z,27.48
2023-05-24T02:39:38.573Z,27.50
2023-05-24T02:41:41.248Z,28.50
2023-05-24T02:43:43.193Z,30.00
2023-05-24T02:45:45.229Z,28.10
2023-05-24T02:47:46.949Z,29.20
2023-05-24T02:49:48.637Z,28.60
2023-05-24T02:51:51.659Z,28.63
2023-05-24T02:53:53.344Z,29.90
2023-05-24T02:55:54.995Z,30.38
2023-05-24T02:57:56.625Z,28.60
2023-05-24T02:59:58.461Z,31.27
2023-05-24T03:02:00.084Z,30.83
2023-05-24T03:04:01.952Z,30.13
2023-05-24T03:06:03.724Z,32.83
2023-05-24T03:08:06.435Z,32.33
2023-05-24T03:10:08.462Z,32.13
2023-05-24T03:12:10.109Z,31.70
2023-05-24T03:14:11.769Z,32.58
2023-05-24T03:16:13.368Z,32.22
2023-05-24T03:18:15.002Z,33.75
2023-05-24T03:20:17.702Z,35.15
2023-05-24T03:22:19.942Z,36.15
2023-05-24T03:24:21.585Z,35.70
2023-05-24T03:26:23.600Z,36.60
2023-05-24T03:28:25.322Z,37.65
2023-05-24T03:30:26.864Z,38.20
2023-05-24T03:32:29.706Z,38.45
2023-05-24T03:34:31.634Z,36.92
2023-05-24T03:36:33.291Z,37.80
2023-05-24T03:38:34.897Z,38.13
2023-05-24T03:40:37.033Z,38.08
2023-05-24T03:42:39.024Z,36.42
2023-05-24T03:44:40.635Z,37.83
2023-05-24T03:46:42.220Z,38.83
2023-05-24T03:48:43.865Z,37.40
2023-05-24T03:50:45.572Z,37.60
2023-05-24T03:52:48.154Z,35.72
2023-05-24T03:54:49.720Z,37.13
2023-05-24T03:56:53.331Z,36.67
2023-05-24T03:58:55.067Z,36.47
2023-05-24T04:00:56.696Z,33.83
2023-05-24T04:02:58.428Z,34.92
2023-05-24T04:05:00.046Z,34.28
2023-05-24T04:07:01.615Z,35.38
2023-05-24T04:09:05.700Z,34.60
2023-05-24T04:11:07.248Z,32.90
2023-05-24T04:13:09.397Z,31.33
2023-05-24T04:15:14.928Z,32.15
2023-05-24T04:17:17.105Z,32.05
2023-05-24T04:19:18.797Z,32.25
2023-05-24T04:21:20.679Z,30.92
2023-05-24T04:23:22.285Z,31.95
2023-05-24T04:25:23.985Z,30.65
2023-05-24T04:27:26.208Z,30.50
2023-05-24T04:29:27.821Z,30.60
2023-05-24T04:31:30.572Z,29.77
2023-05-24T04:33:35.189Z,28.17
2023-05-24T04:35:36.785Z,28.83
2023-05-24T04:37:38.420Z,28.15
2023-05-24T04:39:40.893Z,26.67
2023-05-24T04:41:42.519Z,27.33
2023-05-24T04:43:44.085Z,27.27
2023-05-24T04:45:45.855Z,26.05
2023-05-24T04:47:47.527Z,26.08
2023-05-24T04:49:49.694Z,25.95
2023-05-24T04:51:52.381Z,24.80
2023-05-24T04:53:55.040Z,25.45
2023-05-24T04:55:56.769Z,24.70
2023-05-24T04:57:58.434Z,25.88
2023-05-24T05:00:00.071Z,25.52
2023-05-24T05:02:01.878Z,23.88
2023-05-24T05:04:06.497Z,24.75
2023-05-24T05:06:08.164Z,23.90
2023-05-24T05:08:09.881Z,24.23
2023-05-24T05:10:11.572Z,21.83
2023-05-24T05:12:13.141Z,23.63
2023-05-24T05:14:14.744Z,23.55
2023-05-24T05:16:16.419Z,23.25
2023-05-24T05:18:18.095Z,22.70
2023-05-24T05:20:19.877Z,23.20
2023-05-24T05:22:21.459Z,21.23
2023-05-24T05:24:23.128Z,21.02
2023-05-24T05:26:24.687Z,21.73
2023-05-24T05:28:26.387Z,20.30
2023-05-24T05:30:27.940Z,19.42
2023-05-24T05:32:29.506Z,20.73
2023-05-24T05:34:31.150Z,20.95
2023-05-24T05:36:32.695Z,20.45
2023-05-24T05:38:34.237Z,20.95
2023-05-24T05:40:35.849Z,20.65
2023-05-24T05:42:37.659Z,21.33
2023-05-24T05:44:39.338Z,20.98
2023-05-24T05:46:43.899Z,21.40
2023-05-24T05:48:46.712Z,20.75
2023-05-24T05:50:48.313Z,19.17
2023-05-24T05:52:49.849Z,19.15
2023-05-24T05:54:51.701Z,19.05
2023-05-24T05:56:53.261Z,20.33
2023-05-24T05:58:54.830Z,18.88
2023-05-24T06:00:56.512Z,18.85
2023-05-24T06:02:58.283Z,18.40
2023-05-24T06:05:00.562Z,18.15
2023-05-24T06:07:02.219Z,19.35
2023-05-24T06:09:04.025Z,15.32
2023-05-24T06:11:05.586Z,18.45
2023-05-24T06:13:07.748Z,16.98
2023-05-24T06:15:10.014Z,17.30
2023-05-24T06:17:12.501Z,18.02
2023-05-24T06:19:14.496Z,16.83
2023-05-24T06:21:16.661Z,16.45
2023-05-24T06:23:18.256Z,17.02
2023-05-24T06:25:21.145Z,15.73
2023-05-24T06:27:22.772Z,16.88
2023-05-24T06:29:25.471Z,16.63
2023-05-24T06:31:27.117Z,16.55
2023-05-24T06:33:28.837Z,17.17
2023-05-24T06:35:30.444Z,18.15
2023-05-24T06:37:32.079Z,18.05
2023-05-24T06:39:33.632Z,17.08
2023-05-24T06:41:35.379Z,17.15
2023-05-24T06:43:36.938Z,17.00
2023-05-24T06:45:38.569Z,17.15
2023-05-24T06:47:40.805Z,17.15
2023-05-24T06:49:42.535Z,16.60
2023-05-24T06:51:45.055Z,18.83
2023-05-24T06:53:46.592Z,18.45
2023-05-24T06:55:48.165Z,22.42
2023-05-24T06:57:49.768Z,17.55
2023-05-24T06:59:52.112Z,18.10
2023-05-24T07:01:58.878Z,18.83
2023-05-24T07:04:01.645Z,18.60
2023-05-24T07:06:03.969Z,19.83
2023-05-24T07:08:05.629Z,20.40
2023-05-24T07:10:08.315Z,21.52
2023-05-24T07:12:10.222Z,21.90
2023-05-24T07:14:11.963Z,22.33
2023-05-24T07:16:13.548Z,23.13
2023-05-24T07:18:15.610Z,24.88
2023-05-24T07:20:17.426Z,25.40
2023-05-24T07:22:19.057Z,26.83
2023-05-24T07:24:22.160Z,26.52
2023-05-24T07:26:23.806Z,26.58
2023-05-24T07:28:25.374Z,26.83
2023-05-24T07:30:32.337Z,27.35
2023-05-24T07:32:34.669Z,26.52
2023-05-24T07:34:36.334Z,26.73
2023-05-24T07:36:38.124Z,27.45
2023-05-24T07:38:40.185Z,26.23
2023-05-24T07:40:42.547Z,26.70
2023-05-24T07:42:44.537Z,24.85
2023-05-24T07:44:46.098Z,25.17
2023-05-24T07:46:47.762Z,24.40
2023-05-24T07:48:49.577Z,26.60
2023-05-24T07:50:52.657Z,25.88
2023-05-24T07:52:54.663Z,26.58
2023-05-24T07:54:56.208Z,26.25
2023-05-24T07:56:57.861Z,22.77
2023-05-24T07:59:04.378Z,23.10
2023-05-24T08:01:06.534Z,22.83
2023-05-24T08:03:08.616Z,22.90
2023-05-24T08:05:13.538Z,20.95
2023-05-24T08:07:16.190Z,20.00
2023-05-24T08:09:17.767Z,22.05
2023-05-24T08:11:19.674Z,21.88
2023-05-24T08:13:21.242Z,20.00
2023-05-24T08:15:22.952Z,21.75
2023-05-24T08:17:25.037Z,20.45
2023-05-24T08:19:35.662Z,20.50
2023-05-24T08:21:37.831Z,21.02
2023-05-24T08:23:39.512Z,19.65
2023-05-24T08:25:41.345Z,19.20
2023-05-24T08:27:43.182Z,20.80
2023-05-24T08:29:44.738Z,21.02
2023-05-24T08:31:46.434Z,20.15
2023-05-24T08:33:50.592Z,19.73
2023-05-24T08:35:52.237Z,15.68
2023-05-24T08:37:53.881Z,14.65
2023-05-24T08:39:56.233Z,16.02
2023-05-24T08:42:08.733Z,16.98
2023-05-24T08:44:13.195Z,16.67
2023-05-24T08:46:18.448Z,16.98
2023-05-24T08:48:20.749Z,16.00
2023-05-24T08:50:23.067Z,15.93
2023-05-24T08:52:25.746Z,15.23
2023-05-24T08:54:27.522Z,14.00
2023-05-24T08:56:29.081Z,13.68
2023-05-24T08:58:31.538Z,13.65
2023-05-24T09:00:33.137Z,13.43
2023-05-24T09:02:35.071Z,12.43
2023-05-24T09:04:39.482Z,11.93
2023-05-24T09:06:41.223Z,11.65
2023-05-24T09:08:44.172Z,11.40
2023-05-24T09:10:55.071Z,10.40
2023-05-24T09:12:58.656Z,10.63
2023-05-24T09:15:00.831Z,10.43
2023-05-24T09:17:02.565Z,10.77
2023-05-24T09:19:04.228Z,9.60
2023-05-24T09:21:06.072Z,9.32
2023-05-24T09:23:08.738Z,8.80
2023-05-24T09:25:13.422Z,8.73
2023-05-24T09:27:18.528Z,8.55
2023-05-24T09:29:24.671Z,8.75
2023-05-24T09:31:36.059Z,12.15
2023-05-24T09:33:39.658Z,9.30
2023-05-24T09:35:44.795Z,8.30
2023-05-24T09:37:47.194Z,8.57
2023-05-24T09:39:51.800Z,8.18
2023-05-24T09:41:57.414Z,8.57
2023-05-24T09:43:59.119Z,10.73
2023-05-24T09:46:04.859Z,12.85
2023-05-24T09:48:10.925Z,11.55
2023-05-24T09:50:15.401Z,10.15
2023-05-24T09:52:16.997Z,8.73
2023-05-24T09:54:18.765Z,9.35
2023-05-24T09:56:20.490Z,8.63
2023-05-24T09:58:22.454Z,8.70
2023-05-24T10:00:24.401Z,7.95
2023-05-24T10:02:27.557Z,8.70
2023-05-24T10:04:34.326Z,8.85
2023-05-24T10:06:40.242Z,9.10
2023-05-24T10:08:42.691Z,9.30
2023-05-24T10:10:45.173Z,8.70
2023-05-24T10:12:47.657Z,9.55
2023-05-24T10:14:51.169Z,8.70
2023-05-24T10:16:52.859Z,8.68
2023-05-24T10:18:54.539Z,8.80
2023-05-24T10:20:58.469Z,7.88
2023-05-24T10:23:01.956Z,7.93
2023-05-24T10:25:06.636Z,8.98
2023-05-24T10:27:14.167Z,8.68
2023-05-24T10:29:42.413Z,11.70
2023-05-24T10:31:45.031Z,9.82
2023-05-24T10:33:48.648Z,11.32
2023-05-24T10:35:51.634Z,9.70
2023-05-24T10:37:54.537Z,9.45
2023-05-24T10:39:56.311Z,9.73
2023-05-24T10:41:58.146Z,10.40
2023-05-24T10:44:09.380Z,10.20
2023-05-24T10:46:14.361Z,8.93
2023-05-24T10:48:16.836Z,8.55
2023-05-24T10:50:19.959Z,7.93
2023-05-24T10:52:21.640Z,8.27
2023-05-24T10:54:27.236Z,8.20
2023-05-24T10:56:29.195Z,7.68
2023-05-24T10:58:33.806Z,7.32
2023-05-24T11:00:44.549Z,7.45
2023-05-24T11:03:04.285Z,7.60
2023-05-24T11:07:09.835Z,8.15
2023-05-24T11:09:11.458Z,7.75
2023-05-24T11:11:25.500Z,7.93
2023-05-24T11:13:30.142Z,7.95
2023-05-24T11:15:31.742Z,8.93
2023-05-24T11:18:14.771Z,8.27
2023-05-24T11:20:17.454Z,7.68
2023-05-24T11:22:21.481Z,8.35
2023-05-24T11:24:23.653Z,8.13
2023-05-24T11:26:25.809Z,8.93
2023-05-24T11:28:28.327Z,7.78
2023-05-24T11:30:32.800Z,7.63
2023-05-24T11:32:34.518Z,7.50
2023-05-24T11:34:36.308Z,7.15
2023-05-24T11:36:37.997Z,7.53
2023-05-24T11:38:40.176Z,7.30
2023-05-24T11:40:46.171Z,8.00
2023-05-24T11:42:47.766Z,7.80
2023-05-24T11:44:50.240Z,8.02
2023-05-24T11:47:06.689Z,7.20
2023-05-24T11:49:13.315Z,7.03
2023-05-24T11:51:14.883Z,6.90
2023-05-24T11:53:18.713Z,7.75
2023-05-24T11:55:27.223Z,8.07
2023-05-24T11:57:40.217Z,7.63
2023-05-24T11:59:41.888Z,7.25
2023-05-24T12:01:44.345Z,7.68
2023-05-24T12:03:46.899Z,7.65
2023-05-24T12:05:49.352Z,6.95
2023-05-24T12:08:06.068Z,7.72
2023-05-24T12:10:08.385Z,7.68
2023-05-24T12:12:10.235Z,7.50
2023-05-24T12:14:17.709Z,9.25
2023-05-24T12:16:19.345Z,8.25
2023-05-24T12:18:22.152Z,7.75
2023-05-24T12:20:24.297Z,7.07
2023-05-24T12:22:30.860Z,7.85
2023-05-24T12:24:32.995Z,7.50
2023-05-24T12:26:37.141Z,8.23
2023-05-24T12:28:39.468Z,7.53
2023-05-24T12:30:43.584Z,7.45
2023-05-24T12:32:46.997Z,6.70
2023-05-24T12:34:49.734Z,7.18
2023-05-24T12:36:51.341Z,6.72
2023-05-24T12:38:52.954Z,7.32
2023-05-24T12:41:11.466Z,8.35
2023-05-24T12:43:16.119Z,7.55
2023-05-24T12:45:22.958Z,12.98
2023-05-24T12:47:24.645Z,12.05
2023-05-24T12:49:27.008Z,7.10
2023-05-24T12:51:28.686Z,6.75
2023-05-24T12:53:30.220Z,7.95
2023-05-24T12:55:31.769Z,7.35
2023-05-24T12:57:33.622Z,6.70
2023-05-24T12:59:35.455Z,6.78
2023-05-24T13:01:37.160Z,6.72
2023-05-24T13:03:39.550Z,6.78
2023-05-24T13:05:41.603Z,7.40
2023-05-24T13:07:44.710Z,7.07
2023-05-24T13:09:46.320Z,6.28
2023-05-24T13:11:47.902Z,6.88
2023-05-24T13:13:49.775Z,6.40
2023-05-24T13:15:52.518Z,6.50
2023-05-24T13:17:54.878Z,6.30
2023-05-24T13:19:58.658Z,6.95
2023-05-24T13:22:00.501Z,6.63
2023-05-24T13:24:02.081Z,6.22
2023-05-24T13:26:04.126Z,6.93
2023-05-24T13:28:05.786Z,6.85
2023-05-24T13:30:08.240Z,6.88
2023-05-24T13:32:09.807Z,7.28
2023-05-24T13:34:11.526Z,7.50
2023-05-24T13:36:14.194Z,6.90
2023-05-24T13:38:15.804Z,7.38
2023-05-24T13:40:18.405Z,7.43
2023-05-24T13:42:20.072Z,7.13
2023-05-24T13:44:22.072Z,7.00
2023-05-24T13:46:24.098Z,6.78
2023-05-24T13:48:25.852Z,6.43
2023-05-24T13:50:27.422Z,7.13
2023-05-24T13:52:29.117Z,7.85
2023-05-24T13:54:30.725Z,7.10
2023-05-24T13:56:35.573Z,7.28
2023-05-24T13:58:37.568Z,6.93
2023-05-24T14:00:39.210Z,7.70
2023-05-24T14:02:41.780Z,8.00
2023-05-24T14:04:43.543Z,8.73
2023-05-24T14:06:45.413Z,7.35
2023-05-24T14:08:47.376Z,7.45
2023-05-24T14:10:50.061Z,7.35
2023-05-24T14:13:04.275Z,8.18
2023-05-24T14:15:12.716Z,8.38
2023-05-24T14:17:14.488Z,7.72
2023-05-24T14:19:17.168Z,9.23
2023-05-24T14:21:19.770Z,7.03
2023-05-24T14:23:21.506Z,7.55
2023-05-24T14:25:23.108Z,7.88
2023-05-24T14:27:24.895Z,7.80
2023-05-24T14:29:26.456Z,7.72
2023-05-24T14:31:28.317Z,7.10
2023-05-24T14:33:29.902Z,7.30
2023-05-24T14:35:38.011Z,7.82
2023-05-24T14:37:39.622Z,7.25
2023-05-24T14:39:41.167Z,7.38
2023-05-24T14:41:42.747Z,8.23
2023-05-24T14:43:44.527Z,8.20
2023-05-24T14:45:46.737Z,8.13
2023-05-24T14:47:48.525Z,8.20
2023-05-24T14:49:50.132Z,8.55
2023-05-24T14:51:51.701Z,12.32
2023-05-24T14:53:53.265Z,11.43
2023-05-24T14:55:54.848Z,9.57
2023-05-24T14:57:56.431Z,9.73
2023-05-24T14:59:58.038Z,9.15
2023-05-24T15:01:59.612Z,9.50
2023-05-24T15:04:01.812Z,10.73
2023-05-24T15:06:04.608Z,10.90
2023-05-24T15:08:06.388Z,10.95
2023-05-24T15:10:08.366Z,10.55
2023-05-24T15:12:09.935Z,10.73
2023-05-24T15:14:11.522Z,10.68
2023-05-24T15:16:13.085Z,11.20
2023-05-24T15:18:14.686Z,14.18
2023-05-24T15:20:16.762Z,15.05
2023-05-24T15:22:18.430Z,14.68
2023-05-24T15:24:20.155Z,21.67
2023-05-24T15:26:22.719Z,12.38
2023-05-24T15:28:26.377Z,10.88
2023-05-24T15:30:28.605Z,10.45
2023-05-24T15:32:30.331Z,10.73
2023-05-24T15:34:31.929Z,11.60
2023-05-24T15:36:33.660Z,11.05
2023-05-24T15:38:35.267Z,12.10
2023-05-24T15:40:38.525Z,12.48
2023-05-24T15:42:40.130Z,13.88
2023-05-24T15:44:41.745Z,19.98
2023-05-24T15:46:43.681Z,16.85
2023-05-24T15:48:45.624Z,21.88
2023-05-24T15:51:22.545Z,13.82
2023-05-24T15:53:09.185Z,14.05
2023-05-24T15:55:10.869Z,12.60
2023-05-24T15:57:12.434Z,15.07
2023-05-24T15:59:14.014Z,13.40
2023-05-24T16:01:15.719Z,13.48
2023-05-24T16:03:17.447Z,17.17
2023-05-24T16:05:21.128Z,12.85
2023-05-24T16:07:23.678Z,20.70
2023-05-24T16:09:25.697Z,104.10
2023-05-24T16:11:27.227Z,19.77
2023-05-24T16:13:28.804Z,16.02
2023-05-24T16:15:30.495Z,14.52
2023-05-24T16:17:32.179Z,23.15
2023-05-24T16:19:33.897Z,15.02
2023-05-24T16:21:36.372Z,55.28
2023-05-24T16:23:37.966Z,27.25
2023-05-24T16:25:39.662Z,21.90
2023-05-24T16:27:41.591Z,13.27
2023-05-24T16:29:45.588Z,14.73
2023-05-24T16:31:47.417Z,13.25
2023-05-24T16:33:48.982Z,15.43
2023-05-24T16:35:55.527Z,14.68
2023-05-24T16:37:57.320Z,24.80
2023-05-24T16:39:58.840Z,18.05
2023-05-24T16:42:02.108Z,17.80
2023-05-24T16:44:04.743Z,20.77
2023-05-24T16:46:06.677Z,17.63
2023-05-24T16:48:08.421Z,18.67
2023-05-24T16:50:15.421Z,13.68
2023-05-24T16:52:17.185Z,14.65
2023-05-24T16:54:18.753Z,13.27
2023-05-24T16:56:20.428Z,14.85
2023-05-24T16:58:23.220Z,13.13
2023-05-24T17:00:24.842Z,11.80
2023-05-24T17:02:26.790Z,11.43
2023-05-24T17:04:28.461Z,10.93
2023-05-24T17:06:30.157Z,10.40
2023-05-24T17:08:34.182Z,10.52
2023-05-24T17:10:35.856Z,11.32
2023-05-24T17:12:37.584Z,11.15
2023-05-24T17:14:39.163Z,11.85
2023-05-24T17:16:40.932Z,11.23
2023-05-24T17:18:42.976Z,11.13
2023-05-24T17:20:45.253Z,10.80
2023-05-24T17:22:47.414Z,10.77
2023-05-24T17:24:48.971Z,11.20
2023-05-24T17:26:50.635Z,11.50
2023-05-24T17:28:52.220Z,11.90
2023-05-24T17:30:57.771Z,11.05
2023-05-24T17:32:59.450Z,13.15
2023-05-24T17:35:01.086Z,15.95
2023-05-24T17:37:02.633Z,13.93
2023-05-24T17:39:04.872Z,13.40
2023-05-24T17:41:10.137Z,15.43
2023-05-24T17:43:11.954Z,13.40
2023-05-24T17:45:13.816Z,15.32
2023-05-24T17:47:15.393Z,15.80
2023-05-24T17:49:17.061Z,13.88
2023-05-24T17:51:21.433Z,11.57
2023-05-24T17:53:31.349Z,12.23
2023-05-24T17:55:33.620Z,12.90
2023-05-24T17:57:35.234Z,14.57
2023-05-24T17:59:36.787Z,15.02
2023-05-24T18:01:38.413Z,12.32
2023-05-24T18:03:41.047Z,11.75
2023-05-24T18:05:42.996Z,13.43
2023-05-24T18:07:44.802Z,11.73
2023-05-24T18:09:46.452Z,11.98
2023-05-24T18:11:48.281Z,11.88
2023-05-24T18:13:50.138Z,12.85
2023-05-24T18:15:52.004Z,12.27
2023-05-24T18:17:53.648Z,12.27
2023-05-24T18:19:55.340Z,13.15
2023-05-24T18:21:58.058Z,12.75
2023-05-24T18:23:59.660Z,11.93
2023-05-24T18:26:02.931Z,10.63
2023-05-24T18:28:05.060Z,12.48
2023-05-24T18:30:07.903Z,14.18
2023-05-24T18:32:09.560Z,16.10
2023-05-24T18:34:11.324Z,19.83
2023-05-24T18:36:13.050Z,15.05
2023-05-24T18:38:14.654Z,19.13
2023-05-24T18:40:16.830Z,12.95
2023-05-24T18:42:18.581Z,15.05
2023-05-24T18:44:20.288Z,13.75
2023-05-24T18:46:21.877Z,14.10
2023-05-24T18:48:23.458Z,13.52
2023-05-24T18:50:25.077Z,13.70
2023-05-24T18:52:27.326Z,13.40
2023-05-24T18:54:29.425Z,13.50
2023-05-24T18:56:30.954Z,13.85
2023-05-24T18:58:32.478Z,15.52
2023-05-24T19:00:34.083Z,15.00
2023-05-24T19:02:39.550Z,14.18
2023-05-24T19:04:41.472Z,14.00
2023-05-24T19:06:43.129Z,14.35
2023-05-24T19:08:44.814Z,15.57
2023-05-24T19:10:46.412Z,15.65
2023-05-24T19:12:48.027Z,16.05
2023-05-24T19:14:49.656Z,17.25
2023-05-24T19:16:51.336Z,15.73
2023-05-24T19:18:52.933Z,17.27
2023-05-24T19:20:54.505Z,17.20
2023-05-24T19:22:56.350Z,17.15
2023-05-24T19:24:57.977Z,16.02
2023-05-24T19:27:01.280Z,14.40
2023-05-24T19:29:02.909Z,15.75
2023-05-24T19:31:04.603Z,16.33
2023-05-24T19:33:07.410Z,17.10
2023-05-24T19:35:11.247Z,16.80
2023-05-24T19:37:12.840Z,15.95
2023-05-24T19:39:14.462Z,16.27
2023-05-24T19:41:16.129Z,16.88
2023-05-24T19:43:17.698Z,17.92
2023-05-24T19:45:19.343Z,17.67
2023-05-24T19:47:20.996Z,16.58
2023-05-24T19:49:22.628Z,17.77
2023-05-24T19:51:24.279Z,18.15
2023-05-24T19:53:27.908Z,16.83
2023-05-24T19:55:29.543Z,16.95
2023-05-24T19:57:31.319Z,16.70
2023-05-24T19:59:32.911Z,17.73
2023-05-24T20:01:34.612Z,17.55
2023-05-24T20:03:36.423Z,18.58
2023-05-24T20:05:38.098Z,17.75
2023-05-24T20:07:39.645Z,18.40
2023-05-24T20:09:41.885Z,17.92
2023-05-24T20:11:43.441Z,18.23
2023-05-24T20:13:45.054Z,18.40
2023-05-24T20:15:46.676Z,18.60
2023-05-24T20:17:48.536Z,19.02
2023-05-24T20:19:50.326Z,18.35
2023-05-24T20:21:52.015Z,18.70
2023-05-24T20:23:58.840Z,19.05
2023-05-24T20:26:00.871Z,18.77
2023-05-24T20:28:02.514Z,20.00
2023-05-24T20:30:04.681Z,20.95
2023-05-24T20:32:06.404Z,18.05
2023-05-24T20:34:08.129Z,18.55
2023-05-24T20:36:09.849Z,17.33
2023-05-24T20:38:11.722Z,18.50
2023-05-24T20:40:22.488Z,18.75
2023-05-24T20:42:24.106Z,18.88
2023-05-24T20:44:25.901Z,18.58
2023-05-24T20:46:27.481Z,19.10
2023-05-24T20:48:29.137Z,19.10
2023-05-24T20:50:30.744Z,19.63
2023-05-24T20:52:32.393Z,19.00
2023-05-24T20:54:34.033Z,18.58
2023-05-24T20:56:35.962Z,20.33
2023-05-24T20:58:37.571Z,19.98
2023-05-24T21:00:39.933Z,20.05
2023-05-24T21:02:42.191Z,20.77
2023-05-24T21:04:44.079Z,20.77
2023-05-24T21:06:45.792Z,19.35
2023-05-24T21:08:47.470Z,19.27
2023-05-24T21:10:50.270Z,19.92
2023-05-24T21:12:51.940Z,19.52
2023-05-24T21:14:56.502Z,18.75
2023-05-24T21:16:58.358Z,19.63
2023-05-24T21:19:02.884Z,18.48
2023-05-24T21:21:06.308Z,20.40
2023-05-24T21:23:07.947Z,18.60
2023-05-24T21:25:09.926Z,22.02
2023-05-24T21:27:11.941Z,21.52
2023-05-24T21:29:13.528Z,23.02
2023-05-24T21:31:15.241Z,22.15
2023-05-24T21:33:16.976Z,21.17
2023-05-24T21:35:18.626Z,21.55
2023-05-24T21:37:20.290Z,21.30
2023-05-24T21:39:21.884Z,21.23
2023-05-24T21:41:23.741Z,21.15
2023-05-24T21:43:25.387Z,22.83
2023-05-24T21:45:27.041Z,21.85
2023-05-24T21:47:28.635Z,22.50
2023-05-24T21:49:30.228Z,21.52
2023-05-24T21:51:31.772Z,21.60
2023-05-24T21:53:34.989Z,21.67
2023-05-24T21:55:36.655Z,21.98
2023-05-24T21:57:38.266Z,22.10
2023-05-24T21:59:39.859Z,24.05
2023-05-24T22:01:41.880Z,23.45
2023-05-24T22:03:43.662Z,24.40
2023-05-24T22:05:45.495Z,24.23
2023-05-24T22:07:47.284Z,25.08
2023-05-24T22:09:48.897Z,25.35
2023-05-24T22:11:50.679Z,24.25
2023-05-24T22:13:52.216Z,24.95
2023-05-24T22:15:53.810Z,25.02
2023-05-24T22:17:58.565Z,23.88
2023-05-24T22:20:01.425Z,24.52
2023-05-24T22:22:03.178Z,25.42
2023-05-24T22:24:04.975Z,25.95
2023-05-24T22:26:06.613Z,26.33
2023-05-24T22:28:09.776Z,26.05
2023-05-24T22:30:13.109Z,25.65
2023-05-24T22:32:14.993Z,25.25
2023-05-24T22:34:25.677Z,26.88
2023-05-24T22:36:33.780Z,25.35
2023-05-24T22:38:35.514Z,26.92
2023-05-24T22:40:38.842Z,27.17
2023-05-24T22:42:40.876Z,27.08
2023-05-24T22:44:42.492Z,25.98
2023-05-24T22:46:44.238Z,26.35
2023-05-24T22:48:45.952Z,25.75
2023-05-24T22:50:48.205Z,27.45
2023-05-24T22:52:49.856Z,24.20
2023-05-24T22:54:51.526Z,27.05
2023-05-24T22:56:53.139Z,29.20
2023-05-24T22:58:54.717Z,29.85
2023-05-24T23:00:56.395Z,28.95
2023-05-24T23:02:57.973Z,28.02
2023-05-24T23:05:00.405Z,28.10
2023-05-24T23:07:02.589Z,29.52
2023-05-24T23:09:05.169Z,31.33
2023-05-24T23:11:10.494Z,31.63
2023-05-24T23:13:19.272Z,31.15
2023-05-24T23:15:21.376Z,33.28
2023-05-24T23:17:23.748Z,32.30
2023-05-24T23:19:25.509Z,32.72
2023-05-24T23:21:27.107Z,31.88
2023-05-24T23:23:28.656Z,31.48
2023-05-24T23:25:30.324Z,29.52
2023-05-24T23:27:31.898Z,26.75
2023-05-24T23:29:33.662Z,27.50
2023-05-24T23:31:35.854Z,27.60
2023-05-24T23:33:37.503Z,27.08
2023-05-24T23:35:42.415Z,27.10
2023-05-24T23:37:44.258Z,26.88
2023-05-24T23:39:45.819Z,27.38
2023-05-24T23:41:47.366Z,25.25
2023-05-24T23:43:48.916Z,27.38
2023-05-24T23:45:50.533Z,27.38
2023-05-24T23:47:52.194Z,25.65
2023-05-24T23:49:53.980Z,25.02
2023-05-24T23:51:55.535Z,25.15
2023-05-24T23:53:57.077Z,24.75
2023-05-24T23:55:58.702Z,24.20
2023-05-24T23:58:00.521Z,25.25
